Morris, MN

5:05 PM CST on January 21, 2018 (GMT -0600)
Morris Municipal

Weather History for KMOX - June, 2012

Change the Weather History Date:

Saturday, June 23, 2012

  Actual Average Record
Temperature  
Mean Temperature 72 °F -  
Max Temperature 82 °F 75 °F 95 °F (2005)
Min Temperature 62 °F 55 °F 46 °F (2004)
Cooling Degree Days 7    
Growing Degree Days 22 (Base 50)    
Moisture  
Dew Point 58 °F    
Average Humidity 62    
Maximum Humidity 83    
Minimum Humidity 44    
Precipitation  
Precipitation 0.00 in - - ()
Sea Level Pressure  
Sea Level Pressure 29.86 in    
Wind  
Wind Speed 9 mph (SE)    
Max Wind Speed 17 mph    
Max Gust Speed 24 mph    
Visibility 10 miles    
Events Rain , Thunderstorm    
Averages and records for this station are not official NWS values.
T = Trace of Precipitation, MM = Missing Value Source: NWS Daily Summary

Daily Weather History Graph

Daily Weather History Graph

Search for Another Location

Airport or City:

Trip Planner

Search our weather history database for the weather conditions in past years. The results will help you decide how hot, cold, wet, or windy it might be!

Date:

Astronomy

Jun. 23, 2012 Rise Set
Actual Time 5:35 AM CDT 9:16 PM CDT
Civil Twilight 4:57 AM CDT 9:55 PM CDT
Nautical Twilight 4:06 AM CDT 10:45 PM CDT
Astronomical Twilight 2:56 AM CDT 11:55 PM CDT
Moon 9:50 AM CDT (6/23) 11:31 PM CDT (6/23)
Length of Visible Light 16h 57m
Length of Day
15h 41m
Waxing Crescent, 16% of the Moon is Illuminated
Jun 23
Waxing Crescent
Jun 26
First Quarter
Jul 3
Full
Jul 10
Last Quarter
Jul 18
New

Hourly Weather History & Observations

Time (CDT) Temp. Heat Index Dew Point Humidity Pressure Visibility Wind Dir Wind Speed Gust Speed Precip Events Conditions
12:12 AM 68.0 °F - 53.6 °F 60% 29.92 in 10.0 mi SE 8.1 mph - N/A   Overcast
12:32 AM 68.0 °F - 53.6 °F 60% 29.91 in 10.0 mi ESE 5.8 mph - N/A   Overcast
12:52 AM 66.2 °F - 53.6 °F 64% 29.91 in 10.0 mi ESE 6.9 mph - N/A   Overcast
1:12 AM 66.2 °F - 53.6 °F 64% 29.91 in 10.0 mi ESE 6.9 mph - N/A   Overcast
1:32 AM 66.2 °F - 53.6 °F 64% 29.91 in 10.0 mi SE 6.9 mph - N/A   Overcast
1:52 AM 66.2 °F - 53.6 °F 64% 29.90 in 10.0 mi SE 8.1 mph - N/A   Overcast
2:12 AM 66.2 °F - 53.6 °F 64% 29.90 in 10.0 mi SE 9.2 mph - N/A   Overcast
2:32 AM 66.2 °F - 51.8 °F 60% 29.89 in 10.0 mi SE 9.2 mph - N/A   Overcast
2:52 AM 66.2 °F - 51.8 °F 60% 29.88 in 10.0 mi SE 9.2 mph - N/A   Overcast
3:12 AM 66.2 °F - 51.8 °F 60% 29.87 in 10.0 mi ESE 11.5 mph - N/A   Mostly Cloudy
3:32 AM 66.2 °F - 51.8 °F 60% 29.85 in 10.0 mi SE 10.4 mph - N/A Thunderstorm Scattered Clouds
3:52 AM 66.2 °F - 51.8 °F 60% 29.86 in 10.0 mi SE 11.5 mph - N/A   Clear
4:12 AM 66.2 °F - 53.6 °F 64% 29.85 in 10.0 mi SE 10.4 mph - N/A   Clear
4:32 AM 66.2 °F - 53.6 °F 64% 29.85 in 10.0 mi SE 9.2 mph - N/A   Scattered Clouds
4:52 AM 64.4 °F - 55.4 °F 73% 29.90 in 10.0 mi Calm Calm - N/A Rain Rain
5:12 AM 62.6 °F - 57.2 °F 82% 29.91 in 10.0 mi NNE 6.9 mph - N/A Rain Light Rain
5:32 AM 62.6 °F - 57.2 °F 82% 29.88 in 10.0 mi East 8.1 mph - N/A Rain Light Rain
5:52 AM 62.6 °F - 55.4 °F 77% 29.88 in 10.0 mi East 10.4 mph - N/A Rain Light Rain
6:12 AM 62.6 °F - 57.2 °F 82% 29.86 in 10.0 mi ESE 10.4 mph - N/A   Overcast
6:32 AM 64.4 °F - 57.2 °F 77% 29.85 in 10.0 mi SE 10.4 mph - N/A Rain Light Rain
6:52 AM 64.4 °F - 57.2 °F 77% 29.86 in 10.0 mi SE 9.2 mph - N/A   Mostly Cloudy
7:12 AM 64.4 °F - 57.2 °F 77% 29.84 in 10.0 mi SE 11.5 mph - N/A   Mostly Cloudy
7:32 AM 64.4 °F - 57.2 °F 77% 29.86 in 10.0 mi SSE 12.7 mph - N/A   Overcast
7:52 AM 64.4 °F - 57.2 °F 77% 29.89 in 10.0 mi SE 6.9 mph - N/A Rain Light Rain
8:12 AM 64.4 °F - 57.2 °F 77% 29.88 in 10.0 mi ESE 6.9 mph - N/A   Overcast
8:32 AM 64.4 °F - 57.2 °F 77% 29.88 in 10.0 mi SE 9.2 mph - N/A   Mostly Cloudy
8:52 AM 66.2 °F - 57.2 °F 73% 29.87 in 10.0 mi SSE 10.4 mph - N/A   Scattered Clouds
9:12 AM 68.0 °F - 57.2 °F 68% 29.86 in 10.0 mi SE 11.5 mph - N/A   Clear
9:32 AM 69.8 °F - 57.2 °F 64% 29.86 in 10.0 mi SE 11.5 mph - N/A   Clear
9:52 AM 71.6 °F - 57.2 °F 60% 29.86 in 10.0 mi SSE 10.4 mph - N/A   Clear
10:12 AM 73.4 °F - 57.2 °F 57% 29.85 in 10.0 mi SE 12.7 mph - N/A   Clear
10:32 AM 73.4 °F - 55.4 °F 53% 29.85 in 10.0 mi SE 12.7 mph - N/A   Clear
10:52 AM 75.2 °F - 55.4 °F 50% 29.86 in 10.0 mi SSE 15.0 mph - N/A   Clear
11:12 AM 75.2 °F - 53.6 °F 47% 29.85 in 10.0 mi SSE 16.1 mph - N/A   Clear
11:32 AM 75.2 °F - 53.6 °F 47% 29.85 in 10.0 mi SSE 17.3 mph - N/A   Clear
11:52 AM 75.2 °F - 53.6 °F 47% 29.86 in 10.0 mi SSE 16.1 mph 19.6 mph N/A   Clear
12:12 PM 77.0 °F - 53.6 °F 44% 29.85 in 10.0 mi SSE 15.0 mph 24.2 mph N/A   Clear
12:32 PM 77.0 °F - 55.4 °F 47% 29.85 in 10.0 mi SSE 15.0 mph - N/A   Clear
1:12 PM 78.8 °F - 55.4 °F 44% 29.84 in 10.0 mi SE 13.8 mph 19.6 mph N/A   Clear
1:32 PM 78.8 °F - 57.2 °F 47% 29.85 in 10.0 mi SSE 11.5 mph 18.4 mph N/A   Clear
1:52 PM 78.8 °F - 57.2 °F 47% 29.84 in 10.0 mi SE 12.7 mph 18.4 mph N/A   Clear
2:12 PM 78.8 °F - 57.2 °F 47% 29.84 in 10.0 mi SE 12.7 mph 17.3 mph N/A   Clear
2:32 PM 80.6 °F 80.8 °F 57.2 °F 45% 29.83 in 10.0 mi SSE 11.5 mph 20.7 mph N/A   Clear
2:52 PM 80.6 °F 81.1 °F 59.0 °F 48% 29.82 in 10.0 mi SE 12.7 mph 16.1 mph N/A   Clear
3:12 PM 80.6 °F 81.5 °F 60.8 °F 51% 29.81 in 10.0 mi SE 12.7 mph - N/A   Clear
3:32 PM 82.4 °F 82.9 °F 60.8 °F 48% 29.82 in 10.0 mi SE 16.1 mph - N/A   Clear
3:52 PM 82.4 °F 82.9 °F 60.8 °F 48% 29.82 in 10.0 mi SE 13.8 mph - N/A   Scattered Clouds
4:12 PM 82.4 °F 82.9 °F 60.8 °F 48% 29.82 in 10.0 mi SSE 11.5 mph 16.1 mph N/A   Scattered Clouds
4:32 PM 80.6 °F 81.8 °F 62.6 °F 54% 29.81 in 10.0 mi SSE 12.7 mph - N/A   Clear
4:52 PM 80.6 °F 81.8 °F 62.6 °F 54% 29.81 in 10.0 mi SSE 9.2 mph - N/A   Clear
5:12 PM 82.4 °F 83.4 °F 62.6 °F 51% 29.81 in 10.0 mi SE 11.5 mph - N/A   Clear
5:32 PM 82.4 °F 83.4 °F 62.6 °F 51% 29.81 in 10.0 mi SSE 10.4 mph - N/A   Scattered Clouds
5:52 PM 82.4 °F 83.4 °F 62.6 °F 51% 29.82 in 10.0 mi SSE 10.4 mph - N/A   Scattered Clouds
6:12 PM 80.6 °F 81.8 °F 62.6 °F 54% 29.82 in 10.0 mi SSE 12.7 mph - N/A   Scattered Clouds
6:32 PM 80.6 °F 81.8 °F 62.6 °F 54% 29.82 in 10.0 mi SSE 10.4 mph - N/A   Scattered Clouds
6:52 PM 80.6 °F 82.3 °F 64.4 °F 58% 29.83 in 10.0 mi SE 11.5 mph - N/A   Scattered Clouds
7:12 PM 80.6 °F 82.3 °F 64.4 °F 58% 29.84 in 10.0 mi SE 9.2 mph - N/A   Mostly Cloudy
7:32 PM 78.8 °F - 64.4 °F 61% 29.84 in 10.0 mi SE 8.1 mph - N/A   Scattered Clouds
7:52 PM 78.8 °F - 64.4 °F 61% 29.86 in 10.0 mi ESE 6.9 mph - N/A   Scattered Clouds
8:12 PM 78.8 °F - 64.4 °F 61% 29.86 in 10.0 mi SE 8.1 mph - N/A   Clear
8:32 PM 75.2 °F - 64.4 °F 69% 29.85 in 10.0 mi ESE 8.1 mph - N/A   Clear
8:52 PM 75.2 °F - 64.4 °F 69% 29.85 in 10.0 mi SE 8.1 mph - N/A   Clear
9:12 PM 73.4 °F - 64.4 °F 73% 29.85 in 10.0 mi ESE 6.9 mph - N/A   Clear
9:32 PM 73.4 °F - 64.4 °F 73% 29.85 in 10.0 mi SE 8.1 mph - N/A   Clear
9:52 PM 71.6 °F - 64.4 °F 78% 29.85 in 10.0 mi SE 8.1 mph - N/A   Clear
10:12 PM 71.6 °F - 64.4 °F 78% 29.86 in 10.0 mi SE 8.1 mph - N/A   Clear
10:32 PM 71.6 °F - 64.4 °F 78% 29.87 in 10.0 mi SE 8.1 mph - N/A   Clear
10:52 PM 71.6 °F - 62.6 °F 73% 29.87 in 10.0 mi SE 6.9 mph - N/A   Clear
11:12 PM 69.8 °F - 62.6 °F 78% 29.88 in 10.0 mi SE 4.6 mph - N/A   Clear
11:32 PM 69.8 °F - 62.6 °F 78% 29.89 in 10.0 mi SE 4.6 mph - N/A   Clear
11:52 PM 68.0 °F - 62.6 °F 83% 29.89 in 10.0 mi ESE 5.8 mph - N/A   Clear